createdAt,value
2023-09-26T00:00:21.804Z,8.27
2023-09-26T00:02:49.853Z,7.87
2023-09-26T00:05:21.540Z,7.90
2023-09-26T00:07:50.335Z,7.47
2023-09-26T00:10:19.962Z,8.00
2023-09-26T00:12:48.616Z,8.67
2023-09-26T00:15:17.105Z,8.23
2023-09-26T00:17:45.752Z,7.97
2023-09-26T00:20:18.328Z,8.47
2023-09-26T00:22:48.828Z,8.37
2023-09-26T00:25:18.741Z,8.07
2023-09-26T00:27:48.449Z,7.50
2023-09-26T00:30:18.118Z,7.83
2023-09-26T00:32:46.543Z,7.47
2023-09-26T00:35:15.227Z,7.67
2023-09-26T00:37:44.641Z,7.60
2023-09-26T00:40:20.040Z,7.50
2023-09-26T00:42:48.758Z,7.77
2023-09-26T00:45:17.437Z,7.67
2023-09-26T00:47:46.517Z,8.20
2023-09-26T00:50:15.347Z,8.20
2023-09-26T00:52:46.776Z,8.10
2023-09-26T00:55:18.974Z,7.90
2023-09-26T00:57:50.941Z,8.33
2023-09-26T01:00:23.002Z,7.67
2023-09-26T01:02:51.622Z,8.00
2023-09-26T01:05:20.521Z,7.80
2023-09-26T01:07:49.462Z,8.27
2023-09-26T01:10:19.785Z,8.23
2023-09-26T01:12:48.434Z,8.40
2023-09-26T01:15:32.794Z,8.40
2023-09-26T01:18:01.287Z,8.37
2023-09-26T01:20:30.245Z,8.63
2023-09-26T01:22:59.687Z,7.60
2023-09-26T01:25:30.103Z,8.40
2023-09-26T01:28:02.856Z,8.07
2023-09-26T01:30:31.579Z,8.73
2023-09-26T01:32:59.860Z,8.43
2023-09-26T01:35:28.491Z,8.30
2023-09-26T01:37:57.139Z,8.27
2023-09-26T01:40:26.226Z,8.30
2023-09-26T01:42:56.067Z,9.30
2023-09-26T01:45:25.081Z,9.03
2023-09-26T01:47:53.989Z,8.67
2023-09-26T01:50:23.367Z,8.00
2023-09-26T01:52:52.102Z,8.50
2023-09-26T01:55:22.172Z,8.50
2023-09-26T01:57:51.507Z,8.37
2023-09-26T02:00:22.025Z,8.70
2023-09-26T02:02:52.592Z,8.37
2023-09-26T02:05:22.993Z,8.17
2023-09-26T02:07:51.873Z,8.33
2023-09-26T02:10:20.817Z,8.57
2023-09-26T02:12:50.229Z,8.20
2023-09-26T02:15:21.433Z,8.63
2023-09-26T02:17:49.951Z,7.57
2023-09-26T02:20:20.048Z,8.03
2023-09-26T02:22:49.230Z,8.23
2023-09-26T02:25:20.147Z,8.73
2023-09-26T02:27:49.649Z,8.40
2023-09-26T02:30:21.086Z,8.10
2023-09-26T02:32:49.443Z,7.30
2023-09-26T02:35:20.631Z,7.70
2023-09-26T02:37:49.624Z,7.67
2023-09-26T02:40:18.115Z,7.33
2023-09-26T02:42:46.689Z,7.37
2023-09-26T02:45:15.900Z,8.20
2023-09-26T02:47:46.551Z,7.33
2023-09-26T02:50:15.441Z,7.97
2023-09-26T02:52:45.331Z,7.80
2023-09-26T02:55:14.030Z,7.83
2023-09-26T02:57:42.376Z,7.70
2023-09-26T03:00:17.712Z,8.33
2023-09-26T03:02:49.448Z,7.87
2023-09-26T03:05:18.767Z,8.00
2023-09-26T03:07:47.269Z,7.97
2023-09-26T03:10:16.756Z,7.90
2023-09-26T03:12:49.657Z,7.73
2023-09-26T03:15:18.852Z,7.57
2023-09-26T03:17:49.143Z,8.10
2023-09-26T03:20:18.202Z,8.43
2023-09-26T03:22:46.889Z,8.00
2023-09-26T03:25:15.927Z,8.13
2023-09-26T03:27:44.723Z,7.77
2023-09-26T03:30:16.398Z,7.63
2023-09-26T03:32:45.012Z,7.23
2023-09-26T03:35:14.686Z,7.47
2023-09-26T03:37:42.984Z,8.10
2023-09-26T03:40:13.085Z,7.80
2023-09-26T03:42:41.463Z,7.60
2023-09-26T03:45:10.368Z,7.40
2023-09-26T03:47:38.905Z,7.00
2023-09-26T03:50:08.472Z,7.53
2023-09-26T03:52:38.392Z,7.47
2023-09-26T03:55:08.105Z,7.50
2023-09-26T03:57:36.600Z,7.50
2023-09-26T04:00:14.154Z,7.30
2023-09-26T04:02:42.802Z,7.17
2023-09-26T04:05:11.455Z,7.50
2023-09-26T04:07:41.486Z,7.30
2023-09-26T04:10:10.941Z,7.87
2023-09-26T04:12:39.313Z,7.53
2023-09-26T04:15:08.768Z,7.60
2023-09-26T04:17:37.393Z,7.27
2023-09-26T04:20:09.627Z,7.60
2023-09-26T04:22:42.433Z,7.40
2023-09-26T04:25:11.357Z,7.77
2023-09-26T04:27:39.908Z,8.03
2023-09-26T04:30:10.942Z,7.80
2023-09-26T04:32:39.396Z,7.67
2023-09-26T04:35:08.515Z,7.53
2023-09-26T04:37:37.541Z,8.03
2023-09-26T04:40:10.449Z,8.53
2023-09-26T04:42:43.268Z,7.77
2023-09-26T04:45:12.130Z,7.57
2023-09-26T04:47:40.715Z,7.60
2023-09-26T04:50:10.216Z,7.40
2023-09-26T04:52:40.093Z,8.10
2023-09-26T04:55:10.756Z,7.17
2023-09-26T04:57:39.059Z,7.00
2023-09-26T05:00:10.935Z,6.93
2023-09-26T05:02:39.532Z,7.17
2023-09-26T05:05:08.920Z,6.63
2023-09-26T05:07:37.195Z,7.60
2023-09-26T05:10:06.218Z,7.57
2023-09-26T05:12:38.499Z,6.47
2023-09-26T05:15:08.048Z,6.47
2023-09-26T05:17:36.371Z,6.83
2023-09-26T05:20:08.504Z,6.33
2023-09-26T05:22:37.080Z,6.93
2023-09-26T05:25:06.291Z,6.47
2023-09-26T05:27:36.222Z,6.13
2023-09-26T05:30:05.206Z,6.40
2023-09-26T05:32:33.752Z,5.97
2023-09-26T05:35:02.267Z,6.40
2023-09-26T05:37:30.803Z,6.57
2023-09-26T05:39:59.480Z,7.07
2023-09-26T05:42:27.798Z,6.77
2023-09-26T05:44:57.928Z,6.57
2023-09-26T05:47:26.449Z,6.40
2023-09-26T05:49:54.970Z,6.67
2023-09-26T05:52:23.515Z,6.70
2023-09-26T05:54:51.939Z,6.90
2023-09-26T05:57:20.695Z,6.90
2023-09-26T05:59:49.908Z,6.50
2023-09-26T06:02:19.949Z,6.53
2023-09-26T06:04:48.328Z,6.00
2023-09-26T06:07:17.254Z,6.47
2023-09-26T06:09:57.345Z,6.43
2023-09-26T06:12:29.683Z,6.57
2023-09-26T06:14:58.333Z,6.33
2023-09-26T06:17:28.859Z,6.33
2023-09-26T06:19:57.540Z,6.47
2023-09-26T06:22:27.105Z,6.40
2023-09-26T06:24:55.461Z,6.60
2023-09-26T06:27:24.143Z,6.83
2023-09-26T06:29:52.605Z,6.37
2023-09-26T06:32:21.281Z,5.83
2023-09-26T06:34:52.332Z,6.07
2023-09-26T06:37:21.964Z,6.73
2023-09-26T06:39:50.313Z,7.30
2023-09-26T06:42:18.658Z,6.63
2023-09-26T06:44:47.070Z,6.27
2023-09-26T06:47:15.665Z,6.63
2023-09-26T06:49:44.017Z,6.90
2023-09-26T06:52:13.936Z,7.37
2023-09-26T06:54:42.268Z,6.77
2023-09-26T06:57:11.018Z,7.50
2023-09-26T06:59:39.515Z,6.93
2023-09-26T07:02:10.149Z,6.43
2023-09-26T07:04:38.545Z,6.87
2023-09-26T07:07:07.432Z,6.37
2023-09-26T07:09:37.334Z,6.03
2023-09-26T07:12:05.785Z,6.57
2023-09-26T07:14:40.707Z,7.03
2023-09-26T07:17:11.311Z,6.47
2023-09-26T07:19:42.423Z,6.73
2023-09-26T07:22:11.638Z,5.63
2023-09-26T07:24:49.432Z,6.17
2023-09-26T07:27:19.408Z,6.73
2023-09-26T07:29:48.486Z,6.53
2023-09-26T07:32:17.429Z,6.27
2023-09-26T07:34:46.280Z,7.03
2023-09-26T07:37:14.587Z,6.33
2023-09-26T07:39:48.157Z,6.53
2023-09-26T07:42:16.741Z,6.37
2023-09-26T07:44:45.174Z,6.33
2023-09-26T07:47:13.832Z,7.03
2023-09-26T07:49:42.769Z,6.97
2023-09-26T07:52:11.095Z,6.43
2023-09-26T07:54:39.575Z,6.20
2023-09-26T07:57:09.792Z,7.03
2023-09-26T07:59:39.360Z,6.60
2023-09-26T08:02:07.889Z,7.38
2023-09-26T08:04:36.324Z,6.93
2023-09-26T08:07:05.792Z,6.77
2023-09-26T08:09:34.412Z,6.70
2023-09-26T08:12:02.988Z,6.73
2023-09-26T08:14:32.756Z,6.63
2023-09-26T08:17:01.449Z,6.10
2023-09-26T08:19:29.841Z,5.90
2023-09-26T08:21:58.359Z,6.20
2023-09-26T08:24:27.288Z,6.00
2023-09-26T08:26:55.809Z,6.27
2023-09-26T08:29:24.169Z,6.07
2023-09-26T08:31:54.142Z,5.93
2023-09-26T08:34:22.959Z,5.97
2023-09-26T08:36:51.510Z,6.37
2023-09-26T08:39:20.031Z,6.07
2023-09-26T08:41:50.203Z,5.90
2023-09-26T08:44:20.335Z,6.23
2023-09-26T08:46:48.837Z,6.80
2023-09-26T08:49:18.766Z,6.23
2023-09-26T08:51:47.379Z,5.40
2023-09-26T08:54:15.697Z,5.57
2023-09-26T08:56:46.613Z,5.80
2023-09-26T08:59:16.425Z,5.07
2023-09-26T09:01:44.841Z,5.63
2023-09-26T09:04:14.108Z,5.70
2023-09-26T09:06:44.052Z,5.13
2023-09-26T09:09:14.506Z,5.73
2023-09-26T09:11:42.960Z,5.10
2023-09-26T09:14:11.919Z,4.90
2023-09-26T09:16:40.307Z,5.37
2023-09-26T09:19:08.868Z,5.10
2023-09-26T09:21:37.830Z,5.10
2023-09-26T09:24:09.041Z,5.20
2023-09-26T09:26:38.984Z,5.27
2023-09-26T09:29:21.134Z,5.23
2023-09-26T09:31:49.929Z,5.30
2023-09-26T09:34:18.585Z,4.63
2023-09-26T09:36:47.229Z,4.80
2023-09-26T09:39:20.666Z,4.80
2023-09-26T09:41:50.346Z,4.30
2023-09-26T09:44:19.205Z,4.23
2023-09-26T09:46:50.119Z,4.97
2023-09-26T09:49:24.879Z,4.30
2023-09-26T09:51:57.712Z,4.63
2023-09-26T09:54:39.016Z,4.43
2023-09-26T09:57:35.766Z,4.83
2023-09-26T10:00:08.318Z,4.50
2023-09-26T10:02:41.185Z,4.40
2023-09-26T10:05:13.928Z,4.60
2023-09-26T10:07:45.322Z,4.30
2023-09-26T10:10:16.839Z,4.07
2023-09-26T10:13:08.968Z,3.97
2023-09-26T10:16:07.861Z,4.00
2023-09-26T10:18:39.580Z,4.13
2023-09-26T10:21:25.263Z,3.90
2023-09-26T10:24:27.080Z,3.67
2023-09-26T10:27:06.327Z,3.50
2023-09-26T10:29:39.544Z,3.40
2023-09-26T10:32:11.808Z,3.47
2023-09-26T10:37:29.715Z,3.17
2023-09-26T10:39:58.099Z,3.23
2023-09-26T10:44:59.303Z,3.10
2023-09-26T10:47:27.681Z,2.80
2023-09-26T10:52:49.278Z,3.00
2023-09-26T10:55:20.278Z,2.80
2023-09-26T10:57:52.947Z,2.80
2023-09-26T11:00:21.439Z,2.73
2023-09-26T11:02:50.442Z,2.90
2023-09-26T11:05:19.958Z,2.83
2023-09-26T11:07:48.819Z,2.70
2023-09-26T11:10:18.056Z,2.67
2023-09-26T11:12:46.663Z,2.80
2023-09-26T11:17:51.975Z,2.37
2023-09-26T11:20:20.711Z,2.50
2023-09-26T11:22:50.617Z,2.60
2023-09-26T11:25:19.138Z,2.70
2023-09-26T11:27:49.309Z,2.63
2023-09-26T11:30:21.620Z,2.60
2023-09-26T11:32:52.650Z,2.80
2023-09-26T11:35:22.573Z,2.27
2023-09-26T11:37:51.199Z,2.40
2023-09-26T11:40:24.039Z,2.57
2023-09-26T11:42:56.909Z,2.67
2023-09-26T11:45:28.900Z,2.50
2023-09-26T11:47:58.199Z,2.90
2023-09-26T11:50:29.302Z,2.80
2023-09-26T11:52:59.332Z,3.07
2023-09-26T11:55:27.834Z,2.60
2023-09-26T11:57:56.307Z,2.93
2023-09-26T12:00:27.939Z,2.73
2023-09-26T12:02:56.576Z,2.40
2023-09-26T12:05:25.225Z,2.90
2023-09-26T12:07:53.871Z,3.30
2023-09-26T12:10:24.576Z,3.10
2023-09-26T12:12:54.276Z,2.70
2023-09-26T12:15:24.518Z,2.50
2023-09-26T12:17:56.183Z,2.80
2023-09-26T12:20:26.579Z,2.50
2023-09-26T12:22:56.457Z,2.37
2023-09-26T12:25:26.773Z,2.50
2023-09-26T12:27:55.920Z,2.20
2023-09-26T12:30:24.113Z,1.97
2023-09-26T12:32:53.996Z,2.60
2023-09-26T12:35:22.605Z,2.07
2023-09-26T12:37:50.924Z,2.00
2023-09-26T12:40:19.214Z,1.93
2023-09-26T12:42:47.699Z,2.37
2023-09-26T12:45:16.219Z,2.00
2023-09-26T12:47:44.397Z,2.33
2023-09-26T12:50:15.137Z,2.40
2023-09-26T12:52:44.181Z,2.40
2023-09-26T12:55:18.113Z,2.10
2023-09-26T12:57:46.511Z,2.03
2023-09-26T13:00:15.965Z,2.00
2023-09-26T13:02:45.067Z,2.10
2023-09-26T13:05:15.047Z,2.20
2023-09-26T13:07:43.368Z,2.43
2023-09-26T13:10:12.058Z,2.17
2023-09-26T13:12:40.597Z,2.37
2023-09-26T13:15:10.251Z,2.20
2023-09-26T13:17:39.032Z,2.43
2023-09-26T13:20:12.319Z,2.27
2023-09-26T13:22:42.686Z,2.13
2023-09-26T13:25:11.293Z,2.33
2023-09-26T13:27:39.526Z,2.30
2023-09-26T13:30:09.010Z,1.93
2023-09-26T13:32:37.580Z,2.00
2023-09-26T13:35:06.816Z,2.17
2023-09-26T13:37:37.880Z,2.10
2023-09-26T13:40:10.026Z,2.10
2023-09-26T13:42:38.673Z,2.27
2023-09-26T13:45:10.180Z,2.50
2023-09-26T13:47:39.262Z,2.50
2023-09-26T13:50:08.750Z,2.20
2023-09-26T13:52:37.051Z,2.40
2023-09-26T13:55:07.684Z,2.20
2023-09-26T13:57:37.645Z,2.20
2023-09-26T14:00:07.102Z,2.40
2023-09-26T14:02:35.873Z,1.93
2023-09-26T14:05:19.877Z,2.13
2023-09-26T14:07:48.854Z,2.20
2023-09-26T14:10:18.675Z,2.30
2023-09-26T14:12:46.914Z,2.20
2023-09-26T14:15:15.332Z,1.87
2023-09-26T14:17:43.576Z,1.83
2023-09-26T14:20:12.419Z,2.27
2023-09-26T14:22:41.468Z,2.47
2023-09-26T14:25:11.060Z,2.20
2023-09-26T14:27:41.495Z,1.97
2023-09-26T14:30:11.645Z,2.20
2023-09-26T14:32:42.504Z,2.50
2023-09-26T14:35:13.264Z,2.30
2023-09-26T14:37:41.905Z,2.17
2023-09-26T14:40:12.168Z,2.17
2023-09-26T14:42:42.866Z,2.30
2023-09-26T14:45:12.360Z,2.03
2023-09-26T14:47:40.856Z,2.13
2023-09-26T14:50:10.201Z,2.10
2023-09-26T14:52:38.546Z,2.47
2023-09-26T14:55:08.391Z,1.97
2023-09-26T14:57:37.127Z,2.00
2023-09-26T15:00:10.527Z,2.03
2023-09-26T15:02:39.404Z,2.07
2023-09-26T15:05:08.797Z,2.23
2023-09-26T15:07:38.307Z,2.10
2023-09-26T15:10:08.230Z,1.90
2023-09-26T15:12:36.594Z,1.80
2023-09-26T15:15:07.011Z,2.00
2023-09-26T15:17:37.812Z,2.20
2023-09-26T15:20:06.936Z,2.13
2023-09-26T15:22:35.160Z,1.97
2023-09-26T15:25:03.476Z,1.97
2023-09-26T15:27:31.877Z,1.73
2023-09-26T15:30:00.939Z,1.80
2023-09-26T15:32:30.653Z,2.00
2023-09-26T15:34:59.358Z,2.00
2023-09-26T15:37:27.621Z,2.27
2023-09-26T15:39:55.895Z,2.00
2023-09-26T15:42:26.295Z,1.97
2023-09-26T15:44:56.188Z,2.10
2023-09-26T15:47:25.085Z,2.00
2023-09-26T15:49:54.940Z,2.30
2023-09-26T15:52:23.226Z,2.10
2023-09-26T15:54:51.750Z,1.90
2023-09-26T15:57:20.072Z,2.10
2023-09-26T15:59:49.809Z,2.17
2023-09-26T16:02:18.505Z,3.00
2023-09-26T16:04:47.116Z,2.67
2023-09-26T16:07:16.720Z,2.10
2023-09-26T16:09:45.093Z,2.30
2023-09-26T16:12:13.302Z,2.47
2023-09-26T16:14:41.579Z,2.10
2023-09-26T16:17:10.144Z,2.07
2023-09-26T16:19:38.483Z,2.30
2023-09-26T16:22:07.198Z,2.43
2023-09-26T16:24:36.925Z,2.10
2023-09-26T16:27:05.252Z,2.13
2023-09-26T16:29:33.583Z,2.10
2023-09-26T16:32:03.142Z,2.20
2023-09-26T16:34:31.495Z,2.37
2023-09-26T16:36:59.710Z,1.97
2023-09-26T16:39:28.091Z,2.20
2023-09-26T16:41:57.986Z,2.43
2023-09-26T16:44:26.321Z,2.50
2023-09-26T16:46:54.734Z,2.60
2023-09-26T16:49:23.228Z,2.50
2023-09-26T16:51:51.504Z,2.67
2023-09-26T16:54:19.785Z,2.30
2023-09-26T16:56:48.152Z,2.30
2023-09-26T16:59:18.105Z,2.43
2023-09-26T17:01:46.709Z,2.50
2023-09-26T17:04:16.168Z,3.00
2023-09-26T17:06:44.916Z,2.83
2023-09-26T17:09:13.419Z,2.33
2023-09-26T17:11:41.924Z,2.50
2023-09-26T17:14:10.455Z,2.53
2023-09-26T17:16:40.618Z,2.40
2023-09-26T17:19:09.208Z,2.50
2023-09-26T17:21:37.807Z,2.70
2023-09-26T17:24:06.895Z,2.90
2023-09-26T17:26:35.179Z,2.90
2023-09-26T17:29:04.025Z,2.50
2023-09-26T17:31:32.816Z,2.57
2023-09-26T17:34:03.952Z,2.53
2023-09-26T17:36:32.484Z,2.90
2023-09-26T17:39:01.290Z,2.60
2023-09-26T17:41:30.452Z,2.93
2023-09-26T17:43:58.634Z,2.60
2023-09-26T17:46:27.369Z,2.40
2023-09-26T17:48:55.644Z,2.53
2023-09-26T17:51:44.118Z,2.33
2023-09-26T17:54:12.442Z,2.60
2023-09-26T17:56:40.746Z,3.07
2023-09-26T17:59:10.285Z,2.40
2023-09-26T18:01:39.172Z,2.60
2023-09-26T18:04:08.193Z,2.80
2023-09-26T18:06:36.669Z,2.63
2023-09-26T18:09:07.267Z,2.63
2023-09-26T18:11:36.864Z,3.10
2023-09-26T18:14:06.933Z,3.27
2023-09-26T18:16:35.384Z,3.03
2023-09-26T18:19:03.709Z,2.87
2023-09-26T18:21:32.970Z,2.57
2023-09-26T18:24:01.320Z,2.80
2023-09-26T18:26:30.985Z,2.70
2023-09-26T18:28:59.309Z,3.00
2023-09-26T18:31:28.075Z,2.50
2023-09-26T18:33:56.420Z,2.73
2023-09-26T18:36:25.246Z,2.60
2023-09-26T18:38:53.578Z,2.90
2023-09-26T18:41:22.263Z,3.63
2023-09-26T18:43:54.010Z,2.93
2023-09-26T18:46:22.222Z,3.00
2023-09-26T18:48:50.592Z,3.13
2023-09-26T18:51:18.887Z,3.00
2023-09-26T18:53:47.116Z,2.83
2023-09-26T18:56:15.385Z,3.10
2023-09-26T18:58:43.787Z,3.17
2023-09-26T19:01:14.475Z,2.90
2023-09-26T19:03:43.690Z,2.93
2023-09-26T19:06:13.725Z,2.70
2023-09-26T19:08:41.998Z,2.80
2023-09-26T19:11:10.263Z,2.77
2023-09-26T19:13:38.670Z,2.80
2023-09-26T19:16:08.111Z,3.07
2023-09-26T19:18:43.761Z,3.13
2023-09-26T19:21:18.566Z,2.80
2023-09-26T19:23:46.774Z,3.27
2023-09-26T19:26:15.105Z,2.70
2023-09-26T19:28:43.442Z,3.13
2023-09-26T19:31:14.690Z,2.77
2023-09-26T19:33:44.400Z,3.17
2023-09-26T19:36:12.651Z,2.93
2023-09-26T19:38:43.319Z,3.10
2023-09-26T19:41:11.536Z,2.87
2023-09-26T19:43:39.885Z,3.30
2023-09-26T19:46:09.240Z,3.00
2023-09-26T19:48:40.178Z,3.00
2023-09-26T19:51:09.938Z,3.10
2023-09-26T19:53:41.194Z,3.00
2023-09-26T19:56:09.716Z,2.80
2023-09-26T19:58:38.017Z,2.90
2023-09-26T20:01:06.436Z,3.10
2023-09-26T20:03:35.206Z,3.07
2023-09-26T20:06:03.605Z,3.00
2023-09-26T20:08:33.259Z,3.10
2023-09-26T20:11:01.873Z,3.50
2023-09-26T20:13:30.157Z,3.00
2023-09-26T20:15:58.658Z,3.20
2023-09-26T20:18:27.058Z,3.57
2023-09-26T20:20:56.555Z,3.23
2023-09-26T20:23:25.489Z,3.17
2023-09-26T20:25:59.995Z,2.70
2023-09-26T20:28:28.201Z,3.33
2023-09-26T20:30:57.840Z,3.00
2023-09-26T20:33:26.786Z,3.47
2023-09-26T20:35:59.101Z,3.10
2023-09-26T20:38:27.688Z,3.17
2023-09-26T20:41:05.081Z,3.20
2023-09-26T20:43:33.995Z,3.30
2023-09-26T20:46:02.526Z,3.03
2023-09-26T20:48:31.164Z,10.13
2023-09-26T20:50:59.649Z,3.00
2023-09-26T20:53:28.751Z,3.53
2023-09-26T20:55:57.068Z,3.67
2023-09-26T20:58:26.688Z,3.57
2023-09-26T21:00:55.070Z,3.10
2023-09-26T21:03:23.650Z,11.70
2023-09-26T21:05:51.996Z,4.80
2023-09-26T21:08:20.266Z,3.93
2023-09-26T21:10:48.949Z,3.17
2023-09-26T21:13:17.201Z,3.47
2023-09-26T21:15:46.968Z,3.67
2023-09-26T21:18:15.595Z,3.40
2023-09-26T21:20:43.798Z,3.10
2023-09-26T21:23:13.349Z,3.40
2023-09-26T21:25:41.819Z,3.27
2023-09-26T21:28:10.026Z,3.30
2023-09-26T21:30:38.229Z,3.70
2023-09-26T21:33:08.364Z,3.30
2023-09-26T21:35:36.684Z,4.03
2023-09-26T21:38:06.824Z,3.67
2023-09-26T21:40:35.322Z,3.50
2023-09-26T21:43:03.842Z,3.53
2023-09-26T21:45:32.082Z,3.60
2023-09-26T21:48:00.577Z,3.80
2023-09-26T21:50:30.272Z,3.70
2023-09-26T21:52:58.650Z,4.23
2023-09-26T21:55:29.528Z,4.00
2023-09-26T21:57:57.924Z,4.07
2023-09-26T22:00:26.332Z,3.27
2023-09-26T22:02:55.983Z,3.17
2023-09-26T22:05:24.317Z,4.27
2023-09-26T22:07:55.809Z,3.93
2023-09-26T22:10:24.106Z,3.90
2023-09-26T22:12:52.715Z,4.30
2023-09-26T22:15:21.846Z,4.10
2023-09-26T22:17:50.642Z,4.23
2023-09-26T22:20:21.169Z,4.30
2023-09-26T22:22:49.736Z,3.90
2023-09-26T22:25:19.375Z,4.37
2023-09-26T22:27:47.592Z,4.13
2023-09-26T22:30:16.145Z,3.93
2023-09-26T22:32:44.564Z,4.00
2023-09-26T22:35:13.051Z,4.27
2023-09-26T22:37:41.689Z,4.13
2023-09-26T22:40:11.279Z,4.30
2023-09-26T22:42:42.743Z,4.10
2023-09-26T22:45:12.015Z,4.40
2023-09-26T22:47:40.237Z,4.53
2023-09-26T22:50:09.136Z,4.20
2023-09-26T22:52:39.974Z,4.40
2023-09-26T22:55:10.069Z,4.30
2023-09-26T22:57:40.024Z,4.43
2023-09-26T23:00:10.275Z,4.97
2023-09-26T23:02:38.802Z,4.73
2023-09-26T23:05:09.740Z,4.93
2023-09-26T23:07:38.128Z,4.40
2023-09-26T23:10:08.558Z,4.67
2023-09-26T23:12:36.944Z,4.57
2023-09-26T23:15:07.664Z,4.13
2023-09-26T23:17:38.994Z,4.70
2023-09-26T23:20:11.609Z,4.83
2023-09-26T23:22:40.590Z,4.10
2023-09-26T23:25:11.195Z,5.27
2023-09-26T23:27:40.437Z,4.93
2023-09-26T23:30:13.421Z,5.37
2023-09-26T23:32:43.486Z,4.60
2023-09-26T23:35:20.509Z,4.60
2023-09-26T23:37:49.791Z,4.80
2023-09-26T23:40:20.787Z,4.57
2023-09-26T23:42:49.363Z,4.67
2023-09-26T23:45:20.775Z,5.27
2023-09-26T23:47:49.114Z,4.80
2023-09-26T23:50:17.502Z,5.00
2023-09-26T23:52:46.303Z,4.70
2023-09-26T23:55:14.810Z,5.07
2023-09-26T23:57:43.066Z,5.07
